createdAt,value
2022-11-09T00:00:45.388Z,48.93
2022-11-09T00:06:47.590Z,59.73
2022-11-09T00:12:49.664Z,59.28
2022-11-09T00:18:53.613Z,66.63
2022-11-09T00:24:55.819Z,41.67
2022-11-09T00:31:07.114Z,59.57
2022-11-09T00:37:09.345Z,52.60
2022-11-09T00:43:14.243Z,49.05
2022-11-09T00:49:16.433Z,47.65
2022-11-09T00:55:21.376Z,69.40
2022-11-09T01:01:23.847Z,72.63
2022-11-09T01:07:26.441Z,59.42
2022-11-09T01:13:28.872Z,48.97
2022-11-09T01:19:30.880Z,62.17
2022-11-09T01:25:33.078Z,61.83
2022-11-09T01:31:35.302Z,57.22
2022-11-09T01:37:37.625Z,57.30
2022-11-09T01:43:39.755Z,54.42
2022-11-09T01:49:52.314Z,66.65
2022-11-09T01:56:00.215Z,61.70
2022-11-09T02:02:03.051Z,53.47
2022-11-09T02:08:07.032Z,55.25
2022-11-09T02:14:13.222Z,59.53
2022-11-09T02:20:16.109Z,64.65
2022-11-09T02:26:42.788Z,67.40
2022-11-09T02:32:46.100Z,64.18
2022-11-09T02:38:48.619Z,53.50
2022-11-09T02:44:57.394Z,66.88
2022-11-09T02:50:59.930Z,61.33
2022-11-09T02:57:02.387Z,52.90
2022-11-09T03:09:12.153Z,60.13
2022-11-09T03:15:15.149Z,66.25
2022-11-09T03:21:24.662Z,63.35
2022-11-09T03:54:27.451Z,54.50
2022-11-09T04:13:45.302Z,62.08
2022-11-09T04:33:14.750Z,59.10
2022-11-09T04:39:16.815Z,53.95
2022-11-09T04:51:49.309Z,64.65
2022-11-09T04:57:51.371Z,59.33
2022-11-09T05:10:24.727Z,46.83
2022-11-09T05:16:28.207Z,71.10
2022-11-09T05:22:48.941Z,53.45
2022-11-09T05:28:53.125Z,70.20
2022-11-09T05:34:55.194Z,52.00
2022-11-09T05:40:57.350Z,53.20
2022-11-09T05:46:59.449Z,62.23
2022-11-09T05:53:02.190Z,60.97
2022-11-09T06:05:07.106Z,104.85
2022-11-09T06:17:14.146Z,62.90
2022-11-09T06:23:16.492Z,49.15
2022-11-09T06:29:20.100Z,48.08
2022-11-09T06:35:22.266Z,48.30
2022-11-09T06:41:24.795Z,50.40
2022-11-09T06:47:28.294Z,78.97
2022-11-09T06:53:31.958Z,57.05
2022-11-09T06:59:35.179Z,71.55
2022-11-09T07:05:40.877Z,60.05
2022-11-09T07:11:42.979Z,49.85
2022-11-09T07:17:45.263Z,46.27
2022-11-09T07:23:48.666Z,52.05
2022-11-09T07:29:50.958Z,44.80
2022-11-09T07:35:53.094Z,48.95
2022-11-09T07:41:55.939Z,54.13
2022-11-09T07:48:07.054Z,60.30
2022-11-09T07:54:10.900Z,64.40
2022-11-09T08:00:13.543Z,42.80
2022-11-09T08:12:21.665Z,65.95
2022-11-09T08:18:24.467Z,56.08
2022-11-09T08:24:27.021Z,59.13
2022-11-09T08:30:29.527Z,39.75
2022-11-09T08:36:32.887Z,63.50
2022-11-09T08:42:35.926Z,41.58
2022-11-09T08:48:38.253Z,44.33
2022-11-09T08:54:40.479Z,45.92
2022-11-09T09:00:42.711Z,44.58
2022-11-09T09:06:45.150Z,56.80
2022-11-09T09:12:47.548Z,52.30
2022-11-09T09:18:49.719Z,62.17
2022-11-09T09:24:52.062Z,55.22
2022-11-09T09:30:54.662Z,58.30
2022-11-09T09:36:56.845Z,44.67
2022-11-09T09:42:59.281Z,59.10
2022-11-09T09:49:15.677Z,45.17
2022-11-09T09:55:22.791Z,38.15
2022-11-09T10:01:35.335Z,61.53
2022-11-09T10:08:16.314Z,41.05
2022-11-09T10:14:50.692Z,49.92
2022-11-09T10:21:04.870Z,40.95
2022-11-09T10:27:25.662Z,49.75
2022-11-09T10:33:28.664Z,40.53
2022-11-09T10:39:40.542Z,44.00
2022-11-09T10:46:07.727Z,37.67
2022-11-09T10:52:47.362Z,37.80
2022-11-09T10:59:33.364Z,50.83
2022-11-09T11:06:02.191Z,40.83
2022-11-09T11:12:23.357Z,37.97
2022-11-09T11:18:48.161Z,43.08
2022-11-09T11:25:29.560Z,53.80
2022-11-09T11:31:50.268Z,42.67
2022-11-09T11:38:32.513Z,44.95
2022-11-09T11:45:25.573Z,40.42
2022-11-09T11:52:02.851Z,32.15
2022-11-09T11:58:42.121Z,49.30
2022-11-09T12:05:21.321Z,46.35
2022-11-09T12:11:45.156Z,32.72
2022-11-09T12:18:36.425Z,41.85
2022-11-09T12:25:02.926Z,53.78
2022-11-09T12:31:42.588Z,48.20
2022-11-09T12:38:24.207Z,31.98
2022-11-09T12:45:21.726Z,34.40
2022-11-09T12:51:42.769Z,35.88
2022-11-09T12:58:04.367Z,33.03
2022-11-09T13:04:26.059Z,44.17
2022-11-09T13:10:46.849Z,35.70
2022-11-09T13:17:26.763Z,42.80
2022-11-09T13:24:06.868Z,36.67
2022-11-09T13:30:28.859Z,32.88
2022-11-09T13:37:30.678Z,25.52
2022-11-09T13:44:09.179Z,41.88
2022-11-09T13:50:32.580Z,26.13
2022-11-09T13:56:53.906Z,29.90
2022-11-09T14:03:27.051Z,27.95
2022-11-09T14:10:19.646Z,34.07
2022-11-09T14:17:04.554Z,30.92
2022-11-09T14:23:30.277Z,30.25
2022-11-09T14:29:54.269Z,49.00
2022-11-09T14:36:15.491Z,48.45
2022-11-09T14:42:36.453Z,72.28
2022-11-09T14:48:59.872Z,58.50
2022-11-09T14:55:23.248Z,59.85
2022-11-09T15:02:04.119Z,68.50
2022-11-09T15:08:26.164Z,62.92
2022-11-09T15:14:55.937Z,71.25
2022-11-09T15:21:18.274Z,65.82
2022-11-09T15:27:39.385Z,65.38
2022-11-09T15:33:59.975Z,75.65
2022-11-09T15:40:24.792Z,71.57
2022-11-09T15:46:51.488Z,63.90
2022-11-09T15:53:13.608Z,65.07
2022-11-09T15:59:34.847Z,84.13
2022-11-09T16:05:55.790Z,67.60
2022-11-09T16:12:16.931Z,65.18
2022-11-09T16:18:37.609Z,66.47
2022-11-09T16:24:58.633Z,65.03
2022-11-09T16:31:40.968Z,73.07
2022-11-09T16:38:03.501Z,67.75
2022-11-09T16:44:25.340Z,66.72
2022-11-09T16:50:47.519Z,55.30
2022-11-09T16:57:08.315Z,74.68
2022-11-09T17:03:29.218Z,74.63
2022-11-09T17:09:49.713Z,75.85
2022-11-09T17:16:13.344Z,82.60
2022-11-09T17:22:33.942Z,71.72
2022-11-09T17:28:54.748Z,81.55
2022-11-09T17:35:15.708Z,92.47
2022-11-09T17:41:42.310Z,86.78
2022-11-09T17:48:04.764Z,66.13
2022-11-09T17:54:25.527Z,80.32
2022-11-09T18:00:46.748Z,87.55
2022-11-09T18:07:07.944Z,82.80
2022-11-09T18:13:28.774Z,81.43
2022-11-09T18:19:49.507Z,75.03
2022-11-09T18:26:13.417Z,68.82
2022-11-09T18:32:34.300Z,76.85
2022-11-09T18:38:56.179Z,65.95
2022-11-09T18:45:17.525Z,84.68
2022-11-09T18:51:38.071Z,68.30
2022-11-09T18:57:59.112Z,72.28
2022-11-09T19:04:20.121Z,73.72
2022-11-09T19:10:40.804Z,87.68
2022-11-09T19:17:01.743Z,96.15
2022-11-09T19:23:22.755Z,83.03
2022-11-09T19:29:43.432Z,95.32
2022-11-09T19:36:28.615Z,86.60
2022-11-09T19:42:45.433Z,102.47
2022-11-09T19:49:07.913Z,109.53
2022-11-09T19:55:29.179Z,108.25
2022-11-09T20:01:49.627Z,80.80
2022-11-09T20:08:10.351Z,100.45
2022-11-09T20:14:31.737Z,100.85
2022-11-09T20:20:54.322Z,108.05
2022-11-09T20:27:15.134Z,103.80
2022-11-09T20:33:36.370Z,102.00
2022-11-09T20:39:57.430Z,108.05
2022-11-09T20:46:22.015Z,107.40
2022-11-09T20:52:42.851Z,108.75
2022-11-09T20:59:04.496Z,112.45
2022-11-09T21:05:25.239Z,104.25
2022-11-09T21:12:04.701Z,109.63
2022-11-09T21:18:26.306Z,119.13
2022-11-09T21:25:05.748Z,118.50
2022-11-09T21:31:26.855Z,121.53
2022-11-09T21:37:47.993Z,110.97
2022-11-09T21:44:10.796Z,129.23
2022-11-09T21:50:31.744Z,156.20
2022-11-09T21:56:53.338Z,162.23
2022-11-09T22:03:14.304Z,151.93
2022-11-09T22:09:57.780Z,184.57
2022-11-09T22:16:16.260Z,206.02
2022-11-09T22:22:37.523Z,180.20
2022-11-09T22:28:59.255Z,166.50
2022-11-09T22:35:20.053Z,144.95
2022-11-09T22:41:41.194Z,123.45
2022-11-09T22:48:02.039Z,124.93
2022-11-09T22:54:22.914Z,117.00
2022-11-09T23:00:43.917Z,118.13
2022-11-09T23:07:04.473Z,127.43
2022-11-09T23:13:25.810Z,117.32
2022-11-09T23:19:46.906Z,116.82
2022-11-09T23:26:08.645Z,122.32
2022-11-09T23:32:29.563Z,109.22
2022-11-09T23:38:50.724Z,117.50
2022-11-09T23:45:11.364Z,110.57
2022-11-09T23:51:32.004Z,121.00
2022-11-09T23:57:52.929Z,125.80
